Forside
METAR-TAF:

METAR-TAF

Lufthavne :

Dubai International Airport

Dubai, Forenede Arabiske Emirater

Breddekreds: 25-15-10N, længdekreds: 055-21-52E, højde: 8 m

Aktuelle vejr

Denne rapport blev lavet for 13 minutter siden, kl. 13:00 UTC
Vind 12 kt fra vestsydvest
Temperatur 36°C
Fugtighed 47%
Tryk 998 hPa
Sigt 10 km eller mere
ingen skyer under 1500m og ingen cumulonimbus

METAR: OMDB 221300Z 25012KT CAVOK 36/23 Q0998 NOSIG

Tid: 17:13 (13:13 UTC)

Vejrudsigter

Denne rapport blev lavet for 2 timer og 14 minutter siden, kl. 10:59 UTC
Foreløbig gælder fra 22 på 12 UTC til 23 på 18 UTC
Vind 12 kt fra vest
Sigt: 8000 m
ændring
fra 22 på 17 UTC til 22 på 19 UTC
Vind 7 kt fra syd
Sandsynlighed 30%
fra 23 på 01 UTC til 23 på 04 UTC
Sigt: 4000 m
tåge/dis
ændring
fra 23 på 06 UTC til 23 på 08 UTC
Vind 10 kt fra vestnordvest
ændring
fra 23 på 16 UTC til 23 på 18 UTC
Vind 5 kt fra syd

TAF: OMDB 221059Z 2212/2318 27012KT 8000 NSC BECMG 2217/2219 18007KT PROB30 2301/2304 4000 HZ BECMG 2306/2308 29010KT BECMG 2316/2318 19005KT

Vejrobservationer og prognoser fra mere end 4000 lufthavne (METAR og TAF).

De gule og røde prikker repræsenterer de meteorologiske stationer.

Flyt musen over at se navnet på stationen.

Så klik over at se vejr observationer og prognoser.

At skifte det kort: Klik på de grønne knapper med et sort kors for at zoome ind; på den grønne knap med en bindestreg for at zoome ud; eller på de grønne pile for tilstødende kort.


METAR-TAF: